Time;durP1;ratioP1;P1;durP2;ratioP2;P2;SDS_P1;SDS_P2;PMS_P1;PMS_P2;Temp;Humidity;BMP_temperature;BMP_pressure;BME280_temperature;BME280_humidity;BME280_pressure;Samples;Min_cycle;Max_cycle;Signal;HPM_P1;HPM_P2
2022/04/30 00:02:10;;;;;;;;;7.50;5.00;;;;;8.21;74.25;-18698.56;5006263;28;10823;-73
2022/04/30 00:04:46;;;;;;;;;5.00;4.00;;;;;8.08;74.04;-18694.78;5004722;28;10960;-72
2022/04/30 00:07:21;;;;;;;;;3.75;3.75;;;;;8.09;74.85;-18695.09;4995966;28;10827;-72
2022/04/30 00:09:48;;;;;;;;;6.25;3.75;;;;;8.09;74.26;-18694.94;4992327;28;10856;-72
2022/04/30 00:12:18;;;;;;;;;8.25;4.00;;;;;8.03;74.11;-18693.28;5010642;28;10618;-71
2022/04/30 00:14:46;;;;;;;;;6.25;6.25;;;;;8.01;74.44;-18692.81;5032453;23;10957;-71
2022/04/30 00:17:14;;;;;;;;;3.50;3.50;;;;;8.05;74.78;-18693.88;5029448;28;10849;-71
2022/04/30 00:19:41;;;;;;;;;4.75;4.75;;;;;8.05;75.08;-18693.88;5017540;28;10900;-71
2022/04/30 00:22:08;;;;;;;;;7.50;5.00;;;;;8.05;75.22;-18693.88;5028058;28;10849;-70
2022/04/30 00:24:35;;;;;;;;;5.75;4.50;;;;;8.00;75.22;-18692.50;5021039;28;11095;-70
2022/04/30 00:27:02;;;;;;;;;5.25;5.00;;;;;7.97;75.37;-18691.63;5002445;28;10976;-71
2022/04/30 00:29:29;;;;;;;;;4.50;4.50;;;;;7.99;75.48;-18692.06;5001832;28;10819;-71
2022/04/30 00:31:57;;;;;;;;;6.50;5.25;;;;;8.01;75.40;-18692.66;5008634;28;10710;-71
2022/04/30 00:34:24;;;;;;;;;4.50;4.50;;;;;7.97;75.64;-18691.63;5002905;28;10876;-70
2022/04/30 00:36:50;;;;;;;;;6.00;4.00;;;;;7.97;75.73;-18691.63;5006172;28;11080;-69
2022/04/30 00:39:17;;;;;;;;;4.75;4.00;;;;;8.03;75.65;-18693.41;5005770;28;10924;-71
2022/04/30 00:41:45;;;;;;;;;5.25;5.25;;;;;7.95;75.56;-18690.84;5007668;28;10932;-70
2022/04/30 00:44:18;;;;;;;;;6.50;3.50;;;;;7.92;75.84;-18689.94;4997565;28;11071;-70
2022/04/30 00:46:44;;;;;;;;;5.25;3.50;;;;;7.98;75.93;-18691.75;4999711;28;11549;-69
2022/04/30 00:49:11;;;;;;;;;4.50;4.50;;;;;7.97;76.00;-18691.63;4989669;28;11687;-70
2022/04/30 00:51:43;;;;;;;;;7.00;4.75;;;;;7.94;76.18;-18690.72;5010798;28;10838;-71
2022/04/30 00:54:11;;;;;;;;;4.75;4.75;;;;;7.97;76.42;-18691.63;5012741;28;10967;-69
2022/04/30 00:56:48;;;;;;;;;3.25;2.25;;;;;7.95;76.06;-18690.84;5004908;28;10773;-70
2022/04/30 00:59:19;;;;;;;;;4.50;4.50;;;;;7.94;76.18;-18690.56;5010199;28;11496;-70
2022/04/30 01:01:47;;;;;;;;;6.00;6.00;;;;;7.95;76.55;-18690.84;5009302;28;10830;-69
2022/04/30 01:04:32;;;;;;;;;4.50;4.50;;;;;7.94;76.23;-18690.72;5005651;28;11029;-69
2022/04/30 01:07:10;;;;;;;;;6.00;6.00;;;;;7.94;76.58;-18690.56;5009407;28;10754;-69
2022/04/30 01:09:43;;;;;;;;;5.50;4.50;;;;;7.94;76.20;-18690.72;5005297;28;11028;-70
2022/04/30 01:12:10;;;;;;;;;9.25;5.25;;;;;7.96;76.32;-18691.16;5012255;28;10994;-69
2022/04/30 01:14:39;;;;;;;;;4.25;4.25;;;;;7.95;76.63;-18690.84;5013687;28;10922;-70
2022/04/30 01:17:10;;;;;;;;;6.25;3.75;;;;;7.95;77.07;-18690.84;5005036;28;10816;-70
2022/04/30 01:19:40;;;;;;;;;5.50;4.00;;;;;8.01;77.04;-18692.81;5009457;28;10773;-70
2022/04/30 01:22:20;;;;;;;;;4.00;4.00;;;;;7.92;77.08;-18689.94;5013540;28;10834;-70
2022/04/30 01:24:48;;;;;;;;;6.00;4.00;;;;;7.95;76.94;-18691.00;5010217;28;10768;-70
2022/04/30 01:27:16;;;;;;;;;6.50;4.50;;;;;8.04;77.62;-18693.56;5000015;28;10775;-70
2022/04/30 01:29:43;;;;;;;;;9.75;5.25;;;;;8.03;77.54;-18693.28;5014736;28;11022;-70
2022/04/30 01:37:40;;;;;;;;;7.00;7.00;;;;;8.11;77.40;-18695.53;5005781;28;10827;-70
2022/04/30 01:40:09;;;;;;;;;5.25;3.25;;;;;8.10;77.13;-18695.22;5005230;28;10889;-70
2022/04/30 01:42:38;;;;;;;;;5.00;5.00;;;;;8.07;77.05;-18694.31;4995581;28;10615;-70
2022/04/30 01:45:06;;;;;;;;;8.50;8.00;;;;;8.18;77.05;-18697.66;5013868;28;10920;-71
2022/04/30 01:47:36;;;;;;;;;7.50;5.25;;;;;8.23;76.84;-18699.31;5010726;28;10985;-70
2022/04/30 01:50:04;;;;;;;;;8.00;8.00;;;;;8.06;77.36;-18694.03;5009763;28;10925;-69
2022/04/30 01:52:30;;;;;;;;;6.25;5.00;;;;;8.09;76.85;-18694.94;5011345;28;10947;-69
2022/04/30 01:54:58;;;;;;;;;7.00;7.00;;;;;8.07;77.08;-18694.47;5010170;28;11768;-69
2022/04/30 01:57:28;;;;;;;;;8.50;8.00;;;;;8.01;76.47;-18692.66;5011100;28;10815;-69
2022/04/30 02:00:04;;;;;;;;;6.75;5.00;;;;;7.99;76.85;-18692.06;5007692;28;11696;-68
2022/04/30 02:02:40;;;;;;;;;8.50;7.00;;;;;8.01;76.95;-18692.66;5011655;28;10945;-70
2022/04/30 02:05:09;;;;;;;;;6.00;6.00;;;;;8.05;76.80;-18693.88;4998574;28;10920;-69
2022/04/30 02:07:42;;;;;;;;;5.00;5.00;;;;;8.12;76.89;-18695.84;5007480;28;10989;-69
2022/04/30 02:10:10;;;;;;;;;6.75;6.75;;;;;8.06;76.81;-18694.03;4992097;28;10864;-69
2022/04/30 02:12:37;;;;;;;;;6.25;6.25;;;;;8.08;76.60;-18694.63;5005474;28;11028;-69
2022/04/30 02:15:05;;;;;;;;;6.75;5.25;;;;;8.12;76.54;-18695.84;5014866;28;10830;-69
2022/04/30 02:17:35;;;;;;;;;7.00;7.00;;;;;8.15;76.65;-18696.75;5009001;28;10833;-69
2022/04/30 02:22:54;;;;;;;;;8.00;6.75;;;;;8.23;75.89;-18699.31;5013797;28;10698;-69
2022/04/30 02:25:22;;;;;;;;;8.00;3.50;;;;;8.29;75.65;-18700.97;5013607;28;10859;-70
2022/04/30 02:27:51;;;;;;;;;4.00;2.50;;;;;8.35;75.37;-18702.63;5010235;28;10662;-69
2022/04/30 02:30:19;;;;;;;;;5.00;4.50;;;;;8.29;75.03;-18700.97;5000764;28;10715;-70
2022/04/30 02:32:51;;;;;;;;;4.25;4.25;;;;;8.29;74.94;-18701.13;5009624;28;11411;-70
2022/04/30 02:35:24;;;;;;;;;5.00;5.00;;;;;8.38;75.06;-18703.69;5005329;28;10564;-70
2022/04/30 02:37:52;;;;;;;;;6.00;6.00;;;;;8.32;75.22;-18701.88;5008433;28;10798;-70
2022/04/30 02:40:21;;;;;;;;;5.00;4.00;;;;;8.42;74.84;-18704.75;5004049;28;10795;-70
2022/04/30 02:42:51;;;;;;;;;7.00;4.75;;;;;8.38;74.98;-18703.69;5010472;28;10628;-70
2022/04/30 02:45:18;;;;;;;;;5.50;5.50;;;;;8.45;74.75;-18705.66;5009011;28;11317;-70
2022/04/30 02:47:52;;;;;;;;;4.75;3.50;;;;;8.40;74.49;-18704.16;5001233;28;10673;-70
2022/04/30 02:50:20;;;;;;;;;10.75;6.50;;;;;8.37;74.45;-18703.25;4993403;28;10743;-70
2022/04/30 02:52:46;;;;;;;;;9.75;7.75;;;;;8.39;74.77;-18704.00;5007438;28;10896;-70
2022/04/30 02:55:13;;;;;;;;;7.50;5.75;;;;;8.39;74.49;-18703.84;4985430;28;10891;-71
2022/04/30 03:00:39;;;;;;;;;7.25;4.00;;;;;8.42;75.06;-18704.91;4984968;28;10817;-69
2022/04/30 03:03:29;;;;;;;;;7.75;7.75;;;;;8.45;75.19;-18705.66;5000625;28;10862;-70
2022/04/30 03:05:56;;;;;;;;;4.50;4.00;;;;;8.47;75.79;-18706.41;5002145;28;10758;-70
2022/04/30 03:08:26;;;;;;;;;5.25;4.00;;;;;8.49;75.52;-18707.03;4999547;28;12459;-69
2022/04/30 03:10:55;;;;;;;;;1.75;1.00;;;;;8.54;75.50;-18708.53;4985459;28;11313;-70
2022/04/30 03:13:26;;;;;;;;;5.25;5.00;;;;;8.55;75.55;-18708.84;5010864;28;10511;-72
2022/04/30 03:15:55;;;;;;;;;5.75;5.00;;;;;8.51;76.09;-18707.47;5006252;28;10685;-71
2022/04/30 03:23:47;;;;;;;;;7.00;6.25;;;;;8.47;76.01;-18706.41;5000160;28;10780;-72
2022/04/30 03:26:15;;;;;;;;;3.00;3.00;;;;;8.50;76.09;-18707.31;5007181;28;10723;-71
2022/04/30 03:28:42;;;;;;;;;7.75;7.50;;;;;8.56;76.04;-18708.97;5002798;28;10538;-71
2022/04/30 03:31:10;;;;;;;;;6.00;6.00;;;;;8.55;76.10;-18708.69;4988165;28;10709;-69
2022/04/30 03:33:38;;;;;;;;;5.50;4.00;;;;;8.58;75.87;-18709.59;4985578;28;10867;-71
2022/04/30 03:36:05;;;;;;;;;6.00;5.25;;;;;8.49;76.01;-18706.88;5004126;28;10658;-72
2022/04/30 03:38:31;;;;;;;;;3.25;3.25;;;;;8.49;75.87;-18706.88;4998822;28;10697;-71
2022/04/30 03:40:58;;;;;;;;;7.00;6.00;;;;;8.47;75.69;-18706.41;5007402;28;10749;-72
2022/04/30 03:43:24;;;;;;;;;10.75;7.00;;;;;8.37;76.20;-18703.41;5006403;28;10702;-71
2022/04/30 03:45:51;;;;;;;;;5.50;5.00;;;;;8.43;76.55;-18705.06;4985393;28;10799;-70
2022/04/30 03:48:17;;;;;;;;;8.50;7.00;;;;;8.53;76.19;-18708.09;5001692;28;10703;-71
2022/04/30 03:50:44;;;;;;;;;4.25;4.00;;;;;8.39;76.31;-18704.00;5004937;28;10806;-70
2022/04/30 03:53:10;;;;;;;;;11.50;6.00;;;;;8.41;76.59;-18704.59;5010395;28;10602;-71
2022/04/30 03:55:37;;;;;;;;;5.50;5.50;;;;;8.45;76.64;-18705.66;5002915;28;11390;-70
2022/04/30 03:58:05;;;;;;;;;7.25;6.75;;;;;8.52;76.39;-18707.78;4996293;28;10781;-72
2022/04/30 04:00:31;;;;;;;;;9.00;7.00;;;;;8.50;76.33;-18707.31;5007382;28;10757;-72
2022/04/30 04:02:59;;;;;;;;;8.25;6.50;;;;;8.49;76.07;-18707.03;5006132;28;10706;-71
2022/04/30 04:05:26;;;;;;;;;6.25;6.25;;;;;8.44;76.10;-18705.50;4991548;28;10862;-70
2022/04/30 04:07:54;;;;;;;;;5.00;5.00;;;;;8.45;75.75;-18705.81;5002352;28;10696;-71
2022/04/30 04:10:20;;;;;;;;;7.00;5.00;;;;;8.39;75.87;-18703.84;4999720;28;11458;-70
2022/04/30 04:12:46;;;;;;;;;8.00;4.50;;;;;8.36;75.99;-18703.09;5011027;28;10737;-71
2022/04/30 04:17:58;;;;;;;;;5.00;5.00;;;;;8.45;75.91;-18705.66;5003150;28;10626;-71
2022/04/30 04:20:27;;;;;;;;;4.50;4.50;;;;;8.41;75.89;-18704.59;5002536;28;10548;-71
2022/04/30 04:22:55;;;;;;;;;6.50;4.00;;;;;8.42;75.71;-18704.91;5003174;28;10547;-71
2022/04/30 04:26:07;;;;;;;;;7.25;7.25;;;;;8.44;75.48;-18705.38;4996523;28;10640;-72
2022/04/30 04:28:09;;;;;;;;;4.75;4.75;;;;;8.35;75.66;-18702.78;4991255;28;10709;-72
2022/04/30 04:30:35;;;;;;;;;7.00;6.50;;;;;8.50;75.67;-18707.31;5008415;28;10962;-70
2022/04/30 04:33:02;;;;;;;;;4.25;4.25;;;;;8.52;75.07;-18707.94;5008421;28;10879;-70
2022/04/30 04:35:29;;;;;;;;;6.00;5.50;;;;;8.47;74.91;-18706.28;5000776;28;10765;-70
2022/04/30 04:37:56;;;;;;;;;6.25;6.25;;;;;8.51;75.04;-18707.47;5007043;28;10962;-71
2022/04/30 04:40:22;;;;;;;;;2.00;2.00;;;;;8.62;74.88;-18710.78;4998923;28;10936;-69
2022/04/30 04:42:49;;;;;;;;;6.00;4.50;;;;;8.65;74.60;-18711.69;5009570;28;10663;-71
2022/04/30 04:45:15;;;;;;;;;5.00;5.00;;;;;8.67;74.75;-18712.16;5001688;28;10695;-71
2022/04/30 04:47:49;;;;;;;;;6.75;3.75;;;;;8.63;74.68;-18711.25;5006952;28;10551;-71
2022/04/30 04:50:16;;;;;;;;;3.25;3.25;;;;;8.67;74.63;-18712.31;4999671;28;10707;-71
2022/04/30 04:52:43;;;;;;;;;3.25;3.25;;;;;8.70;74.30;-18713.06;5002780;28;10712;-71
2022/04/30 04:55:10;;;;;;;;;6.00;4.25;;;;;8.74;74.34;-18714.41;5002017;28;10586;-71
2022/04/30 04:57:37;;;;;;;;;8.50;5.50;;;;;8.70;74.38;-18713.06;4999339;28;10591;-71
2022/04/30 05:00:05;;;;;;;;;1.50;1.50;;;;;8.73;74.18;-18714.13;5001857;28;10774;-71
2022/04/30 05:02:32;;;;;;;;;5.75;5.75;;;;;8.74;74.32;-18714.41;4999629;28;10685;-71
2022/04/30 05:04:58;;;;;;;;;5.75;4.75;;;;;8.77;74.28;-18715.19;4983302;28;10613;-71
2022/04/30 05:07:25;;;;;;;;;6.00;2.75;;;;;8.76;74.39;-18714.88;4988285;28;10562;-71
2022/04/30 05:09:52;;;;;;;;;3.00;3.00;;;;;8.68;74.26;-18712.63;5002712;28;10795;-71
2022/04/30 05:12:19;;;;;;;;;1.00;1.00;;;;;8.68;73.64;-18712.63;5002641;28;10511;-71
2022/04/30 05:14:46;;;;;;;;;4.50;4.00;;;;;8.73;73.69;-18713.97;4998738;28;10694;-70
2022/04/30 05:17:14;;;;;;;;;3.50;3.50;;;;;8.75;73.70;-18714.56;4992996;28;10715;-70
2022/04/30 05:19:40;;;;;;;;;5.00;5.00;;;;;8.76;73.69;-18714.88;5001547;28;10586;-69
2022/04/30 05:22:07;;;;;;;;;6.25;6.25;;;;;8.78;73.80;-18715.47;5010020;28;10708;-71
2022/04/30 05:24:33;;;;;;;;;6.00;3.00;;;;;8.78;73.95;-18715.47;5006930;28;10706;-70
2022/04/30 05:27:01;;;;;;;;;2.50;2.50;;;;;8.76;73.43;-18715.03;4994905;28;11404;-69
2022/04/30 05:29:28;;;;;;;;;3.50;2.25;;;;;8.77;73.50;-18715.19;5008574;28;10531;-69
2022/04/30 05:31:54;;;;;;;;;5.75;5.00;;;;;8.74;73.55;-18714.28;4990972;28;10651;-69
2022/04/30 05:34:21;;;;;;;;;5.00;4.75;;;;;8.78;73.46;-18715.63;5010357;28;10652;-69
2022/04/30 05:36:48;;;;;;;;;5.50;5.50;;;;;8.81;73.49;-18716.38;5006209;28;10692;-70
2022/04/30 05:39:15;;;;;;;;;6.00;6.00;;;;;8.81;73.61;-18716.53;5010443;28;10716;-70
2022/04/30 05:41:41;;;;;;;;;6.50;6.00;;;;;8.76;73.15;-18715.03;4984761;28;10811;-69
2022/04/30 05:44:08;;;;;;;;;2.00;2.00;;;;;8.80;73.22;-18716.22;5012559;28;10866;-70
2022/04/30 05:46:36;;;;;;;;;2.00;2.00;;;;;8.84;73.17;-18717.28;4999392;28;11283;-71
2022/04/30 05:49:02;;;;;;;;;4.75;4.75;;;;;8.84;73.31;-18717.28;5005420;28;10812;-70
2022/04/30 05:51:29;;;;;;;;;4.00;4.00;;;;;8.86;73.31;-18718.03;5006099;28;10395;-70
2022/04/30 05:53:57;;;;;;;;;1.75;1.75;;;;;8.87;73.26;-18718.34;5005218;28;10521;-70
2022/04/30 05:56:23;;;;;;;;;4.50;3.00;;;;;8.91;73.16;-18719.41;4991214;28;10323;-70
2022/04/30 05:58:50;;;;;;;;;6.75;4.75;;;;;8.94;73.20;-18720.31;4987331;28;10484;-70
2022/04/30 06:01:16;;;;;;;;;6.00;5.50;;;;;8.94;73.50;-18720.47;5011599;28;10397;-70
2022/04/30 06:03:43;;;;;;;;;2.50;2.50;;;;;8.95;73.34;-18720.63;5009701;28;10398;-69
2022/04/30 06:06:10;;;;;;;;;4.25;4.00;;;;;8.89;73.68;-18718.81;5007672;28;10329;-71
2022/04/30 06:08:36;;;;;;;;;4.00;3.25;;;;;9.00;73.38;-18721.97;5001363;28;10809;-69
2022/04/30 06:11:03;;;;;;;;;3.75;3.75;;;;;9.03;73.48;-18723.03;5004575;28;10565;-70
2022/04/30 06:13:29;;;;;;;;;4.00;3.00;;;;;9.12;73.32;-18725.59;5007196;28;10459;-70
2022/04/30 06:15:56;;;;;;;;;1.00;1.00;;;;;9.13;73.53;-18725.91;5004230;28;10520;-71
2022/04/30 06:18:25;;;;;;;;;4.50;4.50;;;;;9.10;73.07;-18725.00;5010962;28;10447;-70
2022/04/30 06:20:51;;;;;;;;;3.00;3.00;;;;;9.04;73.35;-18723.19;5008165;28;10565;-72
2022/04/30 06:23:18;;;;;;;;;6.25;6.25;;;;;9.07;73.15;-18724.22;5011398;28;11211;-73
2022/04/30 06:25:45;;;;;;;;;3.00;2.00;;;;;9.22;73.13;-18728.63;5002213;28;10770;-72
2022/04/30 06:28:13;;;;;;;;;8.75;7.00;;;;;9.28;72.90;-18730.28;5003452;28;10491;-72
2022/04/30 06:30:41;;;;;;;;;9.75;7.00;;;;;9.36;71.47;-18732.69;5009556;28;10645;-71
2022/04/30 06:33:07;;;;;;;;;8.50;8.00;;;;;9.64;70.48;-18741.00;5008352;28;10725;-71
2022/04/30 06:35:36;;;;;;;;;5.75;5.00;;;;;9.70;69.72;-18742.97;5006070;28;10642;-71
2022/04/30 06:38:03;;;;;;;;;4.50;4.50;;;;;9.88;68.82;-18748.22;5007575;28;10465;-71
2022/04/30 06:40:31;;;;;;;;;8.00;5.00;;;;;10.09;67.82;-18754.56;5005996;28;10400;-70
2022/04/30 06:42:59;;;;;;;;;8.50;7.25;;;;;10.17;66.81;-18756.84;5004477;28;10416;-70
2022/04/30 06:45:26;;;;;;;;;8.00;5.75;;;;;10.27;66.71;-18759.88;5001122;28;10632;-67
2022/04/30 06:47:52;;;;;;;;;4.75;4.75;;;;;10.43;65.06;-18764.69;5008114;28;10343;-72
2022/04/30 06:50:19;;;;;;;;;6.00;5.25;;;;;10.45;63.27;-18765.28;5007414;28;10547;-71
2022/04/30 06:58:17;;;;;;;;;8.75;8.75;;;;;10.97;61.52;-18780.69;4999364;28;10468;-70
2022/04/30 07:03:24;;;;;;;;;4.50;4.00;;;;;11.01;57.64;-18781.88;5002099;28;10356;-71
2022/04/30 07:05:51;;;;;;;;;11.75;5.00;;;;;10.86;57.53;-18777.22;5001130;28;10244;-71
2022/04/30 07:08:18;;;;;;;;;6.00;6.00;;;;;11.09;58.63;-18784.16;5007670;28;10274;-71
2022/04/30 07:10:44;;;;;;;;;7.50;6.25;;;;;11.12;56.75;-18784.91;5008592;28;10344;-70
2022/04/30 07:13:11;;;;;;;;;9.00;8.00;;;;;11.39;57.45;-18793.19;5002508;28;10449;-71
2022/04/30 07:15:37;;;;;;;;;2.50;2.00;;;;;11.47;55.11;-18795.31;5009619;28;10395;-70
2022/04/30 07:18:04;;;;;;;;;7.00;5.50;;;;;11.45;54.68;-18794.84;5010920;28;10006;-70
2022/04/30 07:20:31;;;;;;;;;5.00;5.00;;;;;11.43;55.16;-18794.09;5002556;28;10184;-69
2022/04/30 07:22:57;;;;;;;;;8.75;8.75;;;;;11.51;54.73;-18796.50;5007950;28;10297;-71
2022/04/30 07:25:24;;;;;;;;;7.75;7.75;;;;;11.50;55.98;-18796.22;4986239;28;11076;-70
2022/04/30 07:27:50;;;;;;;;;6.50;5.00;;;;;11.60;56.01;-18799.22;5010228;28;10187;-71
2022/04/30 07:30:17;;;;;;;;;9.00;6.00;;;;;11.92;55.99;-18808.75;4994195;28;10194;-70
2022/04/30 07:32:43;;;;;;;;;8.25;8.25;;;;;11.75;55.66;-18803.75;5007920;28;10104;-69
2022/04/30 07:35:10;;;;;;;;;13.25;10.50;;;;;11.73;56.21;-18803.16;5005773;28;10266;-70
2022/04/30 07:37:36;;;;;;;;;2.50;2.50;;;;;11.98;55.37;-18810.53;4993418;28;10126;-70
2022/04/30 07:40:03;;;;;;;;;9.00;6.00;;;;;12.23;55.72;-18817.94;5010329;28;10116;-70
2022/04/30 07:42:30;;;;;;;;;10.50;10.50;;;;;12.29;54.78;-18819.75;4990603;28;10133;-70
2022/04/30 07:44:59;;;;;;;;;9.75;7.75;;;;;12.38;55.03;-18822.28;4991764;28;10287;-70
2022/04/30 07:47:26;;;;;;;;;5.00;3.50;;;;;12.44;54.73;-18824.25;4991518;28;10197;-71
2022/04/30 07:49:53;;;;;;;;;4.00;4.00;;;;;12.19;55.12;-18816.72;5010922;28;10615;-69
2022/04/30 07:52:19;;;;;;;;;5.00;5.00;;;;;11.94;55.39;-18809.34;5010990;28;10148;-69
2022/04/30 07:54:45;;;;;;;;;4.50;4.50;;;;;12.09;56.45;-18813.72;4986878;28;10045;-70
2022/04/30 07:57:12;;;;;;;;;6.50;6.50;;;;;11.96;55.56;-18809.94;4999983;28;9955;-69
2022/04/30 07:59:39;;;;;;;;;7.00;5.00;;;;;11.54;57.28;-18797.41;5007605;28;10100;-70
2022/04/30 08:02:06;;;;;;;;;8.00;7.00;;;;;11.64;58.29;-18800.44;5003463;28;11003;-70
2022/04/30 08:04:33;;;;;;;;;5.75;5.75;;;;;11.72;58.41;-18802.84;5008902;28;10110;-70
2022/04/30 08:06:59;;;;;;;;;6.00;6.00;;;;;11.98;57.72;-18810.69;5003621;28;10191;-70
2022/04/30 08:09:29;;;;;;;;;10.00;8.00;;;;;12.13;57.79;-18815.06;5010138;28;10099;-72
2022/04/30 08:11:58;;;;;;;;;8.75;5.25;;;;;11.89;57.65;-18807.97;5006566;28;10321;-70
2022/04/30 08:14:25;;;;;;;;;7.50;5.25;;;;;11.56;57.69;-18798.03;5002784;28;10102;-69
2022/04/30 08:16:51;;;;;;;;;6.50;5.00;;;;;11.37;58.22;-18792.44;4987445;28;10079;-70
2022/04/30 08:19:18;;;;;;;;;3.50;3.50;;;;;11.23;59.98;-18788.38;4990583;28;10230;-71
2022/04/30 08:21:46;;;;;;;;;7.50;7.00;;;;;11.07;60.81;-18783.53;5009376;28;9924;-71
2022/04/30 08:24:33;;;;;;;;;4.25;4.25;;;;;10.94;61.69;-18779.63;5008437;28;10094;-70
2022/04/30 08:26:59;;;;;;;;;5.25;5.25;;;;;10.73;62.94;-18773.59;5007049;28;10025;-69
2022/04/30 08:29:28;;;;;;;;;6.75;5.00;;;;;10.69;63.93;-18772.25;5010348;28;10977;-70
2022/04/30 08:31:54;;;;;;;;;6.00;4.75;;;;;10.57;63.57;-18768.75;5008692;28;10860;-70
2022/04/30 08:34:21;;;;;;;;;6.00;5.00;;;;;10.54;63.51;-18767.84;5009087;28;10322;-71
2022/04/30 08:36:49;;;;;;;;;3.00;3.00;;;;;10.51;63.18;-18766.94;5009670;28;10186;-70
2022/04/30 08:39:15;;;;;;;;;6.75;5.25;;;;;10.34;63.33;-18761.81;5003888;28;10478;-70
2022/04/30 08:41:45;;;;;;;;;4.75;4.50;;;;;10.36;63.22;-18762.44;5007715;28;11139;-70
2022/04/30 08:44:15;;;;;;;;;5.25;5.25;;;;;10.58;62.73;-18769.06;5009632;28;10395;-71
2022/04/30 08:46:43;;;;;;;;;4.00;4.00;;;;;10.65;62.27;-18771.19;5009801;28;10759;-70
2022/04/30 08:49:10;;;;;;;;;3.00;3.00;;;;;10.79;60.63;-18775.41;5010097;28;10304;-70
2022/04/30 08:51:37;;;;;;;;;4.00;4.00;;;;;10.68;58.71;-18772.09;5009590;28;10042;-70
2022/04/30 08:54:04;;;;;;;;;3.25;3.25;;;;;10.74;58.66;-18773.75;4999184;28;11061;-69
2022/04/30 09:30:24;;;;;;;;;3.00;3.00;;;;;17.04;40.17;102810.44;5082199;27;13506;-67
2022/04/30 09:33:04;;;;;;;;;4.50;4.50;;;;;15.02;42.01;102810.00;5066821;28;9597;-68
2022/04/30 09:38:17;;;;;;;;;3.00;2.67;;;;;12.87;47.36;102810.16;5062819;28;8908;-66
2022/04/30 09:40:57;;;;;;;;;3.33;3.33;;;;;12.52;48.65;102803.03;5066309;28;9067;-67
2022/04/30 09:43:30;;;;;;;;;5.00;5.00;;;;;12.30;49.46;102804.41;5059863;28;9139;-63
2022/04/30 09:46:06;;;;;;;;;2.75;2.50;;;;;12.17;49.36;102804.81;5047276;28;9433;-65
2022/04/30 09:54:05;;;;;;;;;4.25;3.25;;;;;12.02;50.09;102792.88;5060608;28;9615;-65
2022/04/30 09:56:44;;;;;;;;;4.75;4.75;;;;;11.98;51.41;102795.03;5059300;28;9661;-65
2022/04/30 09:59:13;;;;;;;;;4.00;4.00;;;;;11.87;51.34;102793.44;5046927;28;9727;-65
2022/04/30 10:01:42;;;;;;;;;1.75;1.75;;;;;11.78;52.19;102799.69;5048768;28;9605;-65
2022/04/30 10:04:14;;;;;;;;;2.75;2.75;;;;;11.80;52.84;102795.00;5066225;28;10357;-66
2022/04/30 10:06:45;;;;;;;;;3.75;3.50;;;;;11.82;52.84;102798.38;5057070;28;9676;-66
2022/04/30 10:09:22;;;;;;;;;4.00;2.50;;;;;11.85;52.77;102791.88;5064283;28;9834;-64
2022/04/30 10:12:08;;;;;;;;;2.00;2.00;;;;;11.88;53.24;102794.28;5058137;28;9661;-63
2022/04/30 10:15:13;;;;;;;;;2.25;2.25;;;;;11.73;53.62;102785.84;5057271;28;9594;-64
2022/04/30 10:17:42;;;;;;;;;3.00;3.00;;;;;11.55;52.82;102788.53;5064420;28;9492;-63
2022/04/30 10:20:19;;;;;;;;;4.00;3.00;;;;;11.53;53.40;102785.13;5059945;28;9626;-65
2022/04/30 10:22:53;;;;;;;;;5.00;5.00;;;;;11.48;53.25;102779.34;5046857;28;9688;-65
2022/04/30 10:25:46;;;;;;;;;6.00;6.00;;;;;11.50;52.95;102784.59;5046435;28;9908;-65
2022/04/30 10:28:23;;;;;;;;;4.75;2.00;;;;;11.51;53.05;102786.31;5049164;28;10065;-65
2022/04/30 10:31:18;;;;;;;;;3.25;3.25;;;;;11.55;53.03;102782.31;5080213;28;9883;-64
2022/04/30 10:33:50;;;;;;;;;5.00;5.00;;;;;11.50;53.60;102781.88;5085993;28;9895;-65
2022/04/30 10:36:18;;;;;;;;;4.50;3.00;;;;;11.47;53.63;102776.81;5082980;28;10046;-64
2022/04/30 10:38:54;;;;;;;;;4.00;4.00;;;;;11.40;53.72;102768.47;5064337;28;10012;-67
2022/04/30 10:41:21;;;;;;;;;4.50;2.00;;;;;11.44;53.78;102774.41;5062240;28;10792;-66
2022/04/30 10:43:59;;;;;;;;;6.25;5.00;;;;;11.48;53.74;102765.03;5066716;28;9764;-65
2022/04/30 10:46:35;;;;;;;;;1.00;1.00;;;;;11.47;52.80;102760.63;5071641;28;10434;-64
2022/04/30 10:49:03;;;;;;;;;2.25;2.25;;;;;11.50;51.52;102758.47;5072039;28;9997;-65
2022/04/30 10:51:40;;;;;;;;;3.75;3.00;;;;;11.50;52.61;102757.63;5070955;28;9575;-64
2022/04/30 10:54:10;;;;;;;;;3.75;3.00;;;;;11.52;51.90;102755.63;5060058;28;9818;-65
2022/04/30 10:56:39;;;;;;;;;2.25;1.50;;;;;11.55;51.35;102755.31;5069253;28;9728;-65
2022/04/30 10:59:06;;;;;;;;;2.25;2.25;;;;;11.55;51.64;102752.63;5072174;28;9747;-65
2022/04/30 11:01:34;;;;;;;;;1.50;1.50;;;;;11.53;51.48;102747.38;5071808;28;9678;-66
2022/04/30 11:04:01;;;;;;;;;2.00;2.00;;;;;11.56;50.97;102746.22;5067296;28;9836;-63
2022/04/30 11:06:30;;;;;;;;;2.50;2.50;;;;;11.64;51.26;102754.41;5054821;28;9990;-65
2022/04/30 11:08:57;;;;;;;;;3.75;3.75;;;;;11.60;51.15;102748.47;5065273;28;9743;-66
2022/04/30 11:11:24;;;;;;;;;2.25;2.25;;;;;11.61;50.32;102743.91;5071677;28;10699;-64
2022/04/30 11:14:08;;;;;;;;;5.25;1.50;;;;;11.69;51.09;102740.44;5072220;28;10466;-64
2022/04/30 11:16:36;;;;;;;;;3.00;3.00;;;;;11.79;51.11;102752.00;5059993;28;9922;-65
2022/04/30 11:19:09;;;;;;;;;3.75;3.75;;;;;11.85;50.87;102746.84;5072698;28;10754;-63
2022/04/30 11:21:41;;;;;;;;;3.00;3.00;;;;;12.01;51.45;102739.91;5068472;28;9992;-65
2022/04/30 11:24:09;;;;;;;;;3.75;3.75;;;;;12.11;50.28;102746.03;5060087;28;9856;-63
2022/04/30 11:26:40;;;;;;;;;2.00;2.00;;;;;12.23;50.27;102736.66;5062127;28;9685;-64
2022/04/30 11:29:11;;;;;;;;;2.00;2.00;;;;;12.40;49.29;102739.47;5066612;28;10415;-62
2022/04/30 11:31:38;;;;;;;;;4.00;4.00;;;;;12.42;48.32;102726.66;5059971;28;9815;-63
2022/04/30 11:34:12;;;;;;;;;4.50;3.25;;;;;12.47;47.77;102727.00;5072226;28;9662;-65
2022/04/30 11:36:45;;;;;;;;;4.50;4.50;;;;;12.48;47.06;102728.72;5064386;28;9760;-64
2022/04/30 11:39:13;;;;;;;;;5.25;5.00;;;;;12.51;47.48;102725.69;5071802;28;9744;-65
2022/04/30 11:41:46;;;;;;;;;3.50;3.50;;;;;12.38;46.70;102726.13;5070416;28;9816;-65
2022/04/30 11:44:14;;;;;;;;;2.25;2.25;;;;;12.27;47.90;102729.94;5072018;28;9754;-66
2022/04/30 11:46:42;;;;;;;;;4.00;4.00;;;;;12.21;48.08;102725.19;5063224;28;9591;-64
2022/04/30 11:49:26;;;;;;;;;3.25;3.25;;;;;12.07;49.83;102728.44;5052221;28;10598;-64
2022/04/30 11:52:09;;;;;;;;;2.00;2.00;;;;;11.94;50.91;102728.03;5064201;28;9842;-65
2022/04/30 11:54:38;;;;;;;;;2.75;2.00;;;;;11.79;50.64;102730.44;5069218;28;9743;-65
2022/04/30 11:57:05;;;;;;;;;2.50;2.50;;;;;11.75;50.85;102729.00;5070427;28;9719;-66
2022/04/30 11:59:35;;;;;;;;;4.25;3.00;;;;;11.67;50.57;102727.13;5071950;28;9809;-65
2022/04/30 12:02:04;;;;;;;;;2.25;2.25;;;;;11.59;51.75;102727.03;5070933;28;9897;-64
2022/04/30 12:04:34;;;;;;;;;3.00;1.25;;;;;11.56;52.01;102717.41;5068564;28;9969;-62
2022/04/30 12:07:05;;;;;;;;;2.00;2.00;;;;;11.59;52.35;102719.78;5070826;28;9958;-62
2022/04/30 12:09:37;;;;;;;;;4.00;4.00;;;;;11.66;52.44;102719.16;5068725;28;9858;-63
2022/04/30 12:12:16;;;;;;;;;2.50;2.00;;;;;11.66;52.06;102711.91;5060433;28;9751;-63
2022/04/30 12:14:45;;;;;;;;;3.00;2.00;;;;;11.75;52.35;102715.53;5051435;28;9826;-65
2022/04/30 12:17:11;;;;;;;;;3.50;3.25;;;;;11.81;51.50;102709.50;5058408;28;9833;-65
2022/04/30 12:25:14;;;;;;;;;2.00;2.00;;;;;11.85;51.60;102714.47;5069635;28;9819;-66
2022/04/30 12:27:52;;;;;;;;;4.00;4.00;;;;;11.81;51.74;102709.50;5069889;28;9806;-67
2022/04/30 12:30:49;;;;;;;;;3.75;3.00;;;;;11.69;52.32;102717.00;5069441;28;10783;-67
2022/04/30 12:33:16;;;;;;;;;2.00;2.00;;;;;11.70;52.55;102712.44;5057750;28;9831;-66
2022/04/30 12:35:42;;;;;;;;;4.50;3.00;;;;;11.71;52.23;102706.91;5065588;28;10007;-66
2022/04/30 12:38:14;;;;;;;;;2.75;2.00;;;;;11.75;52.13;102704.72;5067881;28;9954;-66
2022/04/30 12:40:43;;;;;;;;;3.00;2.00;;;;;11.81;51.98;102704.97;5060437;28;9758;-66
2022/04/30 12:43:10;;;;;;;;;2.50;2.50;;;;;11.83;51.66;102708.41;5070652;28;9718;-67
2022/04/30 12:45:40;;;;;;;;;2.25;2.25;;;;;11.82;51.64;102703.09;5070783;28;9897;-66
2022/04/30 12:48:09;;;;;;;;;3.00;2.50;;;;;11.86;51.80;102696.41;5050359;28;10532;-66
2022/04/30 12:50:37;;;;;;;;;3.25;2.75;;;;;11.84;51.19;102687.66;5050707;28;10444;-67
2022/04/30 12:53:09;;;;;;;;;2.00;1.00;;;;;11.92;51.36;102684.16;5065618;28;9944;-68
2022/04/30 12:55:41;;;;;;;;;1.00;1.00;;;;;11.99;51.15;102682.50;5070124;28;9687;-66
2022/04/30 12:58:09;;;;;;;;;3.50;2.50;;;;;12.08;50.69;102681.56;5069255;28;9664;-66